createdAt,value
2018-08-24T00:00:14.255Z,22.20
2018-08-24T00:05:13.436Z,22.30
2018-08-24T00:07:41.476Z,21.23
2018-08-24T00:10:10.075Z,21.73
2018-08-24T00:12:38.221Z,22.37
2018-08-24T00:26:07.458Z,20.30
2018-08-24T00:28:38.684Z,19.20
2018-08-24T00:31:06.024Z,20.70
2018-08-24T00:33:34.321Z,22.60
2018-08-24T00:36:01.863Z,19.60
2018-08-24T00:38:29.904Z,20.03
2018-08-24T00:40:58.371Z,19.47
2018-08-24T00:43:27.268Z,19.73
2018-08-24T00:45:56.322Z,18.80
2018-08-24T00:48:27.751Z,19.40
2018-08-24T00:50:55.831Z,18.57
2018-08-24T00:53:23.707Z,19.67
2018-08-24T00:55:51.129Z,18.83
2018-08-24T00:58:18.970Z,18.47
2018-08-24T01:00:46.977Z,19.30
2018-08-24T01:03:18.748Z,21.05
2018-08-24T01:05:46.785Z,19.40
2018-08-24T01:08:14.838Z,18.80
2018-08-24T01:10:42.244Z,20.05
2018-08-24T01:13:15.426Z,18.70
2018-08-24T01:15:49.443Z,19.45
2018-08-24T01:18:19.607Z,18.12
2018-08-24T01:20:50.966Z,17.80
2018-08-24T01:23:19.706Z,17.87
2018-08-24T01:25:47.462Z,17.60
2018-08-24T01:28:15.241Z,17.20
2018-08-24T01:33:09.723Z,17.30
2018-08-24T01:35:42.969Z,18.30
2018-08-24T01:38:10.923Z,17.40
2018-08-24T01:40:38.543Z,17.70
2018-08-24T01:43:06.351Z,16.70
2018-08-24T01:45:38.840Z,18.30
2018-08-24T01:48:14.993Z,17.13
2018-08-24T01:50:43.239Z,17.93
2018-08-24T01:53:11.035Z,17.03
2018-08-24T01:55:39.671Z,17.07
2018-08-24T01:58:07.098Z,16.87
2018-08-24T02:00:35.050Z,18.27
2018-08-24T02:03:07.034Z,16.30
2018-08-24T02:05:34.422Z,16.52
2018-08-24T02:08:02.838Z,18.07
2018-08-24T02:10:31.340Z,16.65
2018-08-24T02:13:03.979Z,17.05
2018-08-24T02:15:31.427Z,17.30
2018-08-24T02:18:09.002Z,17.15
2018-08-24T02:20:42.643Z,18.17
2018-08-24T02:23:13.892Z,17.87
2018-08-24T02:25:44.503Z,19.05
2018-08-24T02:28:18.870Z,18.60
2018-08-24T02:30:50.986Z,18.33
2018-08-24T02:33:23.976Z,18.12
2018-08-24T02:35:52.800Z,18.62
2018-08-24T02:38:23.082Z,18.37
2018-08-24T02:40:51.471Z,23.20
2018-08-24T02:45:46.536Z,19.50
2018-08-24T02:48:13.872Z,22.48
2018-08-24T02:50:47.201Z,19.23
2018-08-24T02:53:15.243Z,21.17
2018-08-24T02:55:46.971Z,20.30
2018-08-24T03:00:42.340Z,19.73
2018-08-24T03:03:10.090Z,21.68
2018-08-24T03:05:38.986Z,20.20
2018-08-24T03:08:07.772Z,20.37
2018-08-24T03:10:35.290Z,20.02
2018-08-24T03:13:02.728Z,21.87
2018-08-24T03:15:30.851Z,20.37
2018-08-24T03:17:58.214Z,20.02
2018-08-24T03:20:25.969Z,21.85
2018-08-24T03:22:54.033Z,20.37
2018-08-24T03:25:23.639Z,20.40
2018-08-24T03:27:54.196Z,21.87
2018-08-24T03:30:21.552Z,22.00
2018-08-24T03:32:48.922Z,22.15
2018-08-24T03:35:16.334Z,21.70
2018-08-24T03:37:48.247Z,21.48
2018-08-24T03:40:15.679Z,19.80
2018-08-24T03:42:45.486Z,20.20
2018-08-24T03:45:12.991Z,19.85
2018-08-24T03:47:40.548Z,19.82
2018-08-24T03:50:08.103Z,20.30
2018-08-24T03:52:36.688Z,21.55
2018-08-24T03:55:05.668Z,22.25
2018-08-24T03:57:37.465Z,21.30
2018-08-24T04:00:04.880Z,21.25
2018-08-24T04:02:32.617Z,23.05
2018-08-24T04:05:03.990Z,22.80
2018-08-24T04:07:31.719Z,22.30
2018-08-24T04:10:03.361Z,22.13
2018-08-24T04:12:30.764Z,22.55
2018-08-24T04:14:58.664Z,23.15
2018-08-24T04:17:46.659Z,22.73
2018-08-24T04:20:14.547Z,22.05
2018-08-24T04:22:46.916Z,23.30
2018-08-24T04:25:18.489Z,23.10
2018-08-24T04:27:45.908Z,22.45
2018-08-24T04:30:13.307Z,22.90
2018-08-24T04:32:42.289Z,21.60
2018-08-24T04:35:09.866Z,22.52
2018-08-24T04:37:37.243Z,22.62
2018-08-24T04:40:05.113Z,23.70
2018-08-24T04:42:33.756Z,22.90
2018-08-24T04:45:01.209Z,22.67
2018-08-24T04:47:29.935Z,24.57
2018-08-24T04:49:57.368Z,22.17
2018-08-24T04:52:24.791Z,23.42
2018-08-24T04:54:56.660Z,23.90
2018-08-24T04:57:24.037Z,25.70
2018-08-24T04:59:52.554Z,26.10
2018-08-24T05:02:19.988Z,26.65
2018-08-24T05:04:47.615Z,26.42
2018-08-24T05:07:14.914Z,28.32
2018-08-24T05:09:42.923Z,28.12
2018-08-24T05:12:10.303Z,32.17
2018-08-24T05:14:37.641Z,30.30
2018-08-24T05:17:04.986Z,33.50
2018-08-24T05:19:32.345Z,34.67
2018-08-24T05:21:59.673Z,39.27
2018-08-24T05:24:26.999Z,39.08
2018-08-24T05:26:54.323Z,41.25
2018-08-24T05:29:21.704Z,38.00
2018-08-24T05:31:49.002Z,41.02
2018-08-24T05:34:16.986Z,40.78
2018-08-24T05:36:44.446Z,41.75
2018-08-24T05:39:11.762Z,40.88
2018-08-24T05:41:39.158Z,40.60
2018-08-24T05:44:06.514Z,42.33
2018-08-24T05:46:33.843Z,40.28
2018-08-24T05:49:01.190Z,38.58
2018-08-24T05:51:28.555Z,37.95
2018-08-24T05:53:55.864Z,38.05
2018-08-24T05:56:23.186Z,40.00
2018-08-24T05:58:50.502Z,41.30
2018-08-24T06:01:18.587Z,37.63
2018-08-24T06:03:46.006Z,39.08
2018-08-24T06:06:13.292Z,36.35
2018-08-24T06:08:41.421Z,37.33
2018-08-24T06:11:08.838Z,36.00
2018-08-24T06:13:36.158Z,38.85
2018-08-24T06:16:04.220Z,39.92
2018-08-24T06:18:32.498Z,41.02
2018-08-24T06:20:59.827Z,38.20
2018-08-24T06:23:27.772Z,36.42
2018-08-24T06:25:55.052Z,38.73
2018-08-24T06:28:23.190Z,36.80
2018-08-24T06:30:50.592Z,39.10
2018-08-24T06:33:18.066Z,38.92
2018-08-24T06:35:45.389Z,39.03
2018-08-24T06:38:12.735Z,35.70
2018-08-24T06:40:40.083Z,38.30
2018-08-24T06:43:07.459Z,39.20
2018-08-24T06:45:34.795Z,40.63
2018-08-24T06:48:02.165Z,38.50
2018-08-24T06:50:29.559Z,40.90
2018-08-24T06:52:56.903Z,41.60
2018-08-24T06:55:24.396Z,44.50
2018-08-24T06:57:51.803Z,42.87
2018-08-24T07:00:24.703Z,45.60
2018-08-24T07:02:52.015Z,42.23
2018-08-24T07:05:19.578Z,43.70
2018-08-24T07:07:46.927Z,46.47
2018-08-24T07:10:15.072Z,40.43
2018-08-24T07:12:42.386Z,45.48
2018-08-24T07:15:09.821Z,43.37
2018-08-24T07:17:42.680Z,45.90
2018-08-24T07:20:09.967Z,42.53
2018-08-24T07:22:37.581Z,44.80
2018-08-24T07:25:04.985Z,45.98
2018-08-24T07:27:33.008Z,47.45
2018-08-24T07:30:00.306Z,46.73
2018-08-24T07:32:27.634Z,47.55
2018-08-24T07:34:55.167Z,46.27
2018-08-24T07:37:22.468Z,45.27
2018-08-24T07:39:50.448Z,44.43
2018-08-24T07:42:17.766Z,41.48
2018-08-24T07:44:51.060Z,38.60
2018-08-24T07:47:18.389Z,39.90
2018-08-24T07:49:45.703Z,40.17
2018-08-24T07:52:13.068Z,43.73
2018-08-24T07:54:40.389Z,43.52
2018-08-24T07:57:08.006Z,41.18
2018-08-24T07:59:35.398Z,39.90
2018-08-24T08:02:02.801Z,41.42
2018-08-24T08:04:30.105Z,40.87
2018-08-24T08:06:57.606Z,44.33
2018-08-24T08:09:24.920Z,40.35
2018-08-24T08:11:52.385Z,40.90
2018-08-24T08:14:19.693Z,35.30
2018-08-24T08:16:47.758Z,35.92
2018-08-24T08:19:15.100Z,34.10
2018-08-24T08:21:42.435Z,32.80
2018-08-24T08:24:09.823Z,36.00
2018-08-24T08:26:37.105Z,38.30
2018-08-24T08:29:04.487Z,33.85
2018-08-24T08:31:31.798Z,35.35
2018-08-24T08:33:59.427Z,35.28
2018-08-24T08:36:26.794Z,34.23
2018-08-24T08:38:54.124Z,37.60
2018-08-24T08:41:21.494Z,37.58
2018-08-24T08:43:48.926Z,35.00
2018-08-24T08:46:17.036Z,35.28
2018-08-24T08:48:44.369Z,34.13
2018-08-24T08:51:11.875Z,37.55
2018-08-24T08:53:39.236Z,37.73
2018-08-24T08:56:06.642Z,36.60
2018-08-24T08:58:33.989Z,32.85
2018-08-24T09:01:01.344Z,32.70
2018-08-24T09:03:28.671Z,40.92
2018-08-24T09:05:56.707Z,32.45
2018-08-24T09:08:24.003Z,32.05
2018-08-24T09:10:51.416Z,32.13
2018-08-24T09:13:19.332Z,29.80
2018-08-24T09:15:46.643Z,32.08
2018-08-24T09:18:19.530Z,30.40
2018-08-24T09:20:52.311Z,29.33
2018-08-24T09:23:25.331Z,27.02
2018-08-24T09:25:58.003Z,25.23
2018-08-24T09:28:36.244Z,24.40
2018-08-24T09:31:07.450Z,21.17
2018-08-24T09:33:34.783Z,22.07
2018-08-24T09:36:07.471Z,18.90
2018-08-24T09:38:34.851Z,18.00
2018-08-24T09:41:02.244Z,19.85
2018-08-24T09:43:34.954Z,19.10
2018-08-24T09:46:02.324Z,19.12
2018-08-24T09:48:33.933Z,18.10
2018-08-24T09:51:37.954Z,21.20
2018-08-24T09:54:07.720Z,18.45
2018-08-24T09:56:36.241Z,19.00
2018-08-24T09:59:03.745Z,19.47
2018-08-24T10:01:36.414Z,18.37
2018-08-24T10:04:09.188Z,18.83
2018-08-24T10:06:41.764Z,18.70
2018-08-24T10:09:09.961Z,16.87
2018-08-24T10:11:37.402Z,18.17
2018-08-24T10:14:05.081Z,17.77
2018-08-24T10:16:32.557Z,19.70
2018-08-24T10:18:59.924Z,17.60
2018-08-24T10:21:27.575Z,18.70
2018-08-24T10:23:54.910Z,19.90
2018-08-24T10:26:22.220Z,18.80
2018-08-24T10:28:49.610Z,19.63
2018-08-24T10:31:17.044Z,20.60
2018-08-24T10:33:44.424Z,18.27
2018-08-24T10:36:12.555Z,18.40
2018-08-24T10:38:39.931Z,19.23
2018-08-24T10:41:07.334Z,17.90
2018-08-24T10:43:34.624Z,18.80
2018-08-24T10:46:01.924Z,17.50
2018-08-24T10:48:29.279Z,18.90
2018-08-24T10:50:56.644Z,18.53
2018-08-24T10:53:24.050Z,18.10
2018-08-24T10:55:51.387Z,19.03
2018-08-24T10:58:18.703Z,20.00
2018-08-24T11:00:46.010Z,16.50
2018-08-24T11:03:13.568Z,18.23
2018-08-24T11:05:41.060Z,19.10
2018-08-24T11:08:08.472Z,18.77
2018-08-24T11:10:36.702Z,17.93
2018-08-24T11:13:04.046Z,18.10
2018-08-24T11:15:32.035Z,17.83
2018-08-24T11:18:07.767Z,19.17
2018-08-24T11:20:35.779Z,19.17
2018-08-24T11:23:03.103Z,17.40
2018-08-24T11:25:31.282Z,17.20
2018-08-24T11:27:58.603Z,20.30
2018-08-24T11:30:25.917Z,19.73
2018-08-24T11:32:53.822Z,18.03
2018-08-24T11:35:21.368Z,21.50
2018-08-24T11:37:48.673Z,19.20
2018-08-24T11:40:16.531Z,18.40
2018-08-24T11:42:44.050Z,17.33
2018-08-24T11:45:11.651Z,18.03
2018-08-24T11:47:39.079Z,17.17
2018-08-24T11:50:06.492Z,18.47
2018-08-24T11:52:33.767Z,17.10
2018-08-24T11:55:01.186Z,18.50
2018-08-24T11:57:28.709Z,18.00
2018-08-24T11:59:56.208Z,16.17
2018-08-24T12:02:23.714Z,16.07
2018-08-24T12:04:51.055Z,18.13
2018-08-24T12:07:18.832Z,16.33
2018-08-24T12:09:46.154Z,16.30
2018-08-24T12:12:13.486Z,16.00
2018-08-24T12:14:40.934Z,15.30
2018-08-24T12:17:09.813Z,15.77
2018-08-24T12:19:37.106Z,15.60
2018-08-24T12:22:04.572Z,14.87
2018-08-24T12:24:31.953Z,16.67
2018-08-24T12:26:59.934Z,15.90
2018-08-24T12:29:27.482Z,17.13
2018-08-24T12:31:54.850Z,16.43
2018-08-24T12:34:22.235Z,15.60
2018-08-24T12:36:49.511Z,17.13
2018-08-24T12:39:16.859Z,19.40
2018-08-24T12:41:44.328Z,15.97
2018-08-24T12:44:11.632Z,16.90
2018-08-24T12:46:38.966Z,15.83
2018-08-24T12:49:06.313Z,18.80
2018-08-24T12:51:33.674Z,16.53
2018-08-24T12:54:01.136Z,16.37
2018-08-24T12:56:28.472Z,15.00
2018-08-24T12:58:55.850Z,16.37
2018-08-24T13:01:23.803Z,16.17
2018-08-24T13:03:51.214Z,15.70
2018-08-24T13:06:18.570Z,16.20
2018-08-24T13:08:45.993Z,17.03
2018-08-24T13:11:14.214Z,16.07
2018-08-24T13:13:41.801Z,14.97
2018-08-24T13:16:09.667Z,14.80
2018-08-24T13:18:37.146Z,16.97
2018-08-24T13:21:04.935Z,15.50
2018-08-24T13:23:32.304Z,17.17
2018-08-24T13:25:59.590Z,16.23
2018-08-24T13:28:26.901Z,16.60
2018-08-24T13:30:54.259Z,16.07
2018-08-24T13:33:21.680Z,15.57
2018-08-24T13:35:49.059Z,18.30
2018-08-24T13:38:17.075Z,18.10
2018-08-24T13:40:44.382Z,16.10
2018-08-24T13:43:11.730Z,14.97
2018-08-24T13:45:39.015Z,16.60
2018-08-24T13:48:06.860Z,15.23
2018-08-24T13:50:34.220Z,14.90
2018-08-24T13:53:02.247Z,16.10
2018-08-24T13:55:29.842Z,16.47
2018-08-24T13:57:57.421Z,17.30
2018-08-24T14:00:26.052Z,16.77
2018-08-24T14:02:53.427Z,15.67
2018-08-24T14:05:20.738Z,15.73
2018-08-24T14:07:48.103Z,14.77
2018-08-24T14:10:15.606Z,14.90
2018-08-24T14:12:42.933Z,18.10
2018-08-24T14:15:11.254Z,15.53
2018-08-24T14:17:38.638Z,15.13
2018-08-24T14:20:06.064Z,14.50
2018-08-24T14:22:33.572Z,15.93
2018-08-24T14:25:01.101Z,17.30
2018-08-24T14:27:28.803Z,15.43
2018-08-24T14:29:56.149Z,15.70
2018-08-24T14:32:23.494Z,16.97
2018-08-24T14:34:50.825Z,15.60
2018-08-24T14:37:18.853Z,14.53
2018-08-24T14:39:46.756Z,16.33
2018-08-24T14:42:14.374Z,15.90
2018-08-24T14:44:41.701Z,15.37
2018-08-24T14:47:09.082Z,16.37
2018-08-24T14:49:36.975Z,15.20
2018-08-24T14:52:04.762Z,16.70
2018-08-24T14:54:32.886Z,14.80
2018-08-24T14:57:00.555Z,15.43
2018-08-24T14:59:27.992Z,14.30
2018-08-24T15:01:56.249Z,15.53
2018-08-24T15:04:23.646Z,17.13
2018-08-24T15:06:50.938Z,15.43
2018-08-24T15:09:18.261Z,15.77
2018-08-24T15:11:45.651Z,15.77
2018-08-24T15:14:13.007Z,15.80
2018-08-24T15:16:40.401Z,15.57
2018-08-24T15:19:08.365Z,15.37
2018-08-24T15:21:35.760Z,17.00
2018-08-24T15:24:03.103Z,17.60
2018-08-24T15:26:31.083Z,19.70
2018-08-24T15:28:58.444Z,14.97
2018-08-24T15:31:25.879Z,17.07
2018-08-24T15:33:53.220Z,16.27
2018-08-24T15:36:20.534Z,14.90
2018-08-24T15:38:47.930Z,16.37
2018-08-24T15:41:15.243Z,14.43
2018-08-24T15:43:43.466Z,15.97
2018-08-24T15:46:11.495Z,16.67
2018-08-24T15:48:39.382Z,14.70
2018-08-24T15:51:06.814Z,15.07
2018-08-24T15:53:34.222Z,15.40
2018-08-24T15:56:02.139Z,15.47
2018-08-24T15:58:29.546Z,17.07
2018-08-24T16:00:56.877Z,15.20
2018-08-24T16:03:24.254Z,15.40
2018-08-24T16:05:51.635Z,14.80
2018-08-24T16:08:18.938Z,14.97
2018-08-24T16:10:46.233Z,16.30
2018-08-24T16:13:13.563Z,17.20
2018-08-24T16:15:41.042Z,16.07
2018-08-24T16:18:14.559Z,15.30
2018-08-24T16:20:41.951Z,18.43
2018-08-24T16:23:09.342Z,15.00
2018-08-24T16:25:37.107Z,16.77
2018-08-24T16:28:04.599Z,14.73
2018-08-24T16:30:31.899Z,15.90
2018-08-24T16:32:59.205Z,18.00
2018-08-24T16:35:26.500Z,17.60
2018-08-24T16:37:53.799Z,19.07
2018-08-24T16:40:21.097Z,15.53
2018-08-24T16:42:48.436Z,15.57
2018-08-24T16:45:15.758Z,16.10
2018-08-24T16:47:43.133Z,14.97
2018-08-24T16:50:10.422Z,15.20
2018-08-24T16:52:37.750Z,17.70
2018-08-24T16:55:05.107Z,15.83
2018-08-24T16:57:32.456Z,17.03
2018-08-24T16:59:59.831Z,15.83
2018-08-24T17:02:27.177Z,16.20
2018-08-24T17:04:54.459Z,16.20
2018-08-24T17:07:21.762Z,15.50
2018-08-24T17:09:49.132Z,15.60
2018-08-24T17:12:16.557Z,15.37
2018-08-24T17:14:43.954Z,19.70
2018-08-24T17:17:11.285Z,15.97
2018-08-24T17:19:38.574Z,15.90
2018-08-24T17:22:06.064Z,16.53
2018-08-24T17:24:34.155Z,16.20
2018-08-24T17:27:05.479Z,16.33
2018-08-24T17:29:32.983Z,15.53
2018-08-24T17:32:01.325Z,16.50
2018-08-24T17:34:33.288Z,15.80
2018-08-24T17:37:01.585Z,16.40
2018-08-24T17:39:28.901Z,16.50
2018-08-24T17:41:56.376Z,16.27
2018-08-24T17:44:23.829Z,15.60
2018-08-24T17:46:51.186Z,15.30
2018-08-24T17:49:18.774Z,17.80
2018-08-24T17:51:46.239Z,15.27
2018-08-24T17:54:13.796Z,15.60
2018-08-24T17:56:41.803Z,15.63
2018-08-24T17:59:09.995Z,17.67
2018-08-24T18:01:43.059Z,17.83
2018-08-24T18:04:10.491Z,16.37
2018-08-24T18:06:39.223Z,15.93
2018-08-24T18:09:09.963Z,15.90
2018-08-24T18:11:37.530Z,15.57
2018-08-24T18:14:06.266Z,17.77
2018-08-24T18:16:37.922Z,18.67
2018-08-24T18:19:09.646Z,16.20
2018-08-24T18:21:45.671Z,17.37
2018-08-24T18:24:13.070Z,18.60
2018-08-24T18:26:40.891Z,15.40
2018-08-24T18:29:13.055Z,15.85
2018-08-24T18:31:41.302Z,16.43
2018-08-24T18:34:09.151Z,19.23
2018-08-24T18:36:36.988Z,17.50
2018-08-24T18:39:06.867Z,19.67
2018-08-24T18:41:34.975Z,19.87
2018-08-24T18:44:02.346Z,20.60
2018-08-24T18:46:33.795Z,21.30
2018-08-24T18:49:01.948Z,19.65
2018-08-24T18:51:39.929Z,17.07
2018-08-24T18:54:08.539Z,17.02
2018-08-24T18:56:35.945Z,18.20
2018-08-24T18:59:03.411Z,17.60
2018-08-24T19:01:31.216Z,20.55
2018-08-24T19:03:59.616Z,18.85
2018-08-24T19:06:28.006Z,15.85
2018-08-24T19:08:55.939Z,17.48
2018-08-24T19:11:28.772Z,16.52
2018-08-24T19:16:30.722Z,17.48
2018-08-24T19:19:03.584Z,17.95
2018-08-24T19:21:37.116Z,17.50
2018-08-24T19:24:04.556Z,17.27
2018-08-24T19:26:31.953Z,16.00
2018-08-24T19:29:04.874Z,19.25
2018-08-24T19:31:32.236Z,16.10
2018-08-24T19:34:03.622Z,17.40
2018-08-24T19:36:31.497Z,15.83
2018-08-24T19:38:58.920Z,16.00
2018-08-24T19:41:32.431Z,16.23
2018-08-24T19:44:00.774Z,17.70
2018-08-24T19:46:28.183Z,17.55
2018-08-24T19:49:01.001Z,18.92
2018-08-24T19:51:28.618Z,18.02
2018-08-24T19:53:55.946Z,18.75
2018-08-24T19:56:23.378Z,17.40
2018-08-24T19:58:56.397Z,17.17
2018-08-24T20:01:23.754Z,16.40
2018-08-24T20:03:51.542Z,20.55
2018-08-24T20:06:24.387Z,17.90
2018-08-24T20:08:57.219Z,17.23
2018-08-24T20:11:24.563Z,16.80
2018-08-24T20:13:51.931Z,20.97
2018-08-24T20:18:52.510Z,17.85
2018-08-24T20:21:19.904Z,16.10
2018-08-24T20:23:47.514Z,16.55
2018-08-24T20:26:15.477Z,16.93
2018-08-24T20:28:42.970Z,17.95
2018-08-24T20:31:10.361Z,17.40
2018-08-24T20:33:38.108Z,18.50
2018-08-24T20:36:05.601Z,16.97
2018-08-24T20:38:33.120Z,17.05
2018-08-24T20:41:01.079Z,17.30
2018-08-24T20:43:28.888Z,21.48
2018-08-24T20:48:23.363Z,16.85
2018-08-24T20:50:50.995Z,19.57
2018-08-24T20:53:18.874Z,16.30
2018-08-24T20:55:46.449Z,16.95
2018-08-24T20:58:14.487Z,17.00
2018-08-24T21:00:42.672Z,19.02
2018-08-24T21:03:10.790Z,17.40
2018-08-24T21:05:38.457Z,21.37
2018-08-24T21:08:09.813Z,16.85
2018-08-24T21:10:37.810Z,18.77
2018-08-24T21:13:05.250Z,17.20
2018-08-24T21:15:32.718Z,17.02
2018-08-24T21:18:00.136Z,16.32
2018-08-24T21:20:31.905Z,17.87
2018-08-24T21:22:59.674Z,17.48
2018-08-24T21:25:27.322Z,16.23
2018-08-24T21:27:59.966Z,17.98
2018-08-24T21:30:27.520Z,16.80
2018-08-24T21:32:59.768Z,16.85
2018-08-24T21:35:27.824Z,18.95
2018-08-24T21:37:55.670Z,16.20
2018-08-24T21:40:23.843Z,16.90
2018-08-24T21:42:51.761Z,20.02
2018-08-24T21:45:19.144Z,16.10
2018-08-24T21:47:47.857Z,18.48
2018-08-24T21:50:15.717Z,16.30
2018-08-24T21:52:43.080Z,16.42
2018-08-24T21:55:10.915Z,19.32
2018-08-24T21:57:43.039Z,17.35
2018-08-24T22:00:12.067Z,16.57
2018-08-24T22:02:44.908Z,15.90
2018-08-24T22:05:16.157Z,16.05
2018-08-24T22:07:48.662Z,16.82
2018-08-24T22:10:17.866Z,15.65
2018-08-24T22:12:45.340Z,17.00
2018-08-24T22:15:12.768Z,16.37
2018-08-24T22:17:41.573Z,17.80
2018-08-24T22:20:09.490Z,17.40
2018-08-24T22:22:41.562Z,18.75
2018-08-24T22:25:08.964Z,15.58
2018-08-24T22:27:36.663Z,17.77
2018-08-24T22:30:04.615Z,16.77
2018-08-24T22:32:32.648Z,17.10
2018-08-24T22:35:01.392Z,17.15
2018-08-24T22:37:30.344Z,19.00
2018-08-24T22:39:58.406Z,16.87
2018-08-24T22:42:25.815Z,17.48
2018-08-24T22:44:54.009Z,16.00
2018-08-24T22:47:25.869Z,16.20
2018-08-24T22:49:54.244Z,16.10
2018-08-24T22:52:22.622Z,16.77
2018-08-24T22:54:50.019Z,16.67
2018-08-24T22:57:17.504Z,16.82
2018-08-24T22:59:45.767Z,17.30
2018-08-24T23:02:17.585Z,16.50
2018-08-24T23:04:45.304Z,16.80
2018-08-24T23:07:16.964Z,18.05
2018-08-24T23:09:44.411Z,18.87
2018-08-24T23:12:12.618Z,18.67
2018-08-24T23:14:44.565Z,18.15
2018-08-24T23:17:12.702Z,18.30
2018-08-24T23:19:40.457Z,16.12
2018-08-24T23:22:07.878Z,16.00
2018-08-24T23:24:36.134Z,17.25
2018-08-24T23:27:04.490Z,16.77
2018-08-24T23:29:31.970Z,17.60
2018-08-24T23:31:59.439Z,16.60
2018-08-24T23:34:27.042Z,20.50
2018-08-24T23:36:55.407Z,18.20
2018-08-24T23:41:50.341Z,16.27
2018-08-24T23:44:18.312Z,16.90
2018-08-24T23:46:45.635Z,17.45
2018-08-24T23:49:14.178Z,19.00
2018-08-24T23:51:41.558Z,19.90
2018-08-24T23:54:09.724Z,17.98
2018-08-24T23:56:37.099Z,19.77
2018-08-24T23:59:05.115Z,19.55
